TimeCST,TemperatureF,Dew PointF,Humidity,Sea Level PressureIn,VisibilityMPH,Wind Direction,Wind SpeedMPH,Gust SpeedMPH,PrecipitationIn,Events,Conditions,WindDirDegrees,DateUTC
12:15 AM,42.8,33.8,70,30.19,10.0,Calm,Calm,-,N/A,,Clear,0,2012-11-04 05:15:00
12:35 AM,42.8,33.8,70,30.20,10.0,Calm,Calm,-,N/A,,Clear,0,2012-11-04 05:35:00
12:55 AM,41.0,33.8,76,30.19,10.0,East,4.6,-,N/A,,Clear,90,2012-11-04 05:55:00
1:15 AM,46.4,37.4,71,30.18,10.0,ESE,4.6,-,N/A,,Clear,110,2012-11-04 06:15:00
1:35 AM,42.8,33.8,70,30.18,10.0,Calm,Calm,-,N/A,,Clear,0,2012-11-04 06:35:00
1:55 AM,42.8,33.8,70,30.20,10.0,ENE,3.5,-,N/A,,Clear,70,2012-11-04 06:55:00
1:15 AM,41.0,33.8,76,30.21,10.0,NE,4.6,-,N/A,,Clear,50,2012-11-04 07:15:00
1:35 AM,42.8,33.8,70,30.21,10.0,East,3.5,-,N/A,,Clear,80,2012-11-04 07:35:00
1:55 AM,42.8,32.0,66,30.21,10.0,Calm,Calm,-,N/A,,Clear,0,2012-11-04 07:55:00
2:15 AM,42.8,32.0,66,30.21,10.0,Calm,Calm,-,N/A,,Clear,0,2012-11-04 08:15:00
2:35 AM,42.8,33.8,70,30.21,10.0,Calm,Calm,-,N/A,,Clear,0,2012-11-04 08:35:00
2:55 AM,41.0,32.0,70,30.21,10.0,Calm,Calm,-,N/A,,Clear,0,2012-11-04 08:55:00
3:15 AM,39.2,32.0,75,30.21,10.0,Calm,Calm,-,N/A,,Clear,0,2012-11-04 09:15:00
3:35 AM,39.2,32.0,75,30.21,10.0,Calm,Calm,-,N/A,,Clear,0,2012-11-04 09:35:00
3:55 AM,37.4,32.0,81,30.21,10.0,North,3.5,-,N/A,,Clear,10,2012-11-04 09:55:00
4:15 AM,37.4,32.0,81,30.20,10.0,Calm,Calm,-,N/A,,Clear,0,2012-11-04 10:15:00
4:35 AM,39.2,32.0,75,30.20,10.0,Calm,Calm,-,N/A,,Clear,0,2012-11-04 10:35:00
4:55 AM,35.6,32.0,87,30.20,10.0,North,3.5,-,N/A,,Clear,10,2012-11-04 10:55:00
5:15 AM,35.6,32.0,87,30.21,10.0,Calm,Calm,-,N/A,,Clear,0,2012-11-04 11:15:00
5:35 AM,35.6,32.0,87,30.21,10.0,Calm,Calm,-,N/A,,Clear,0,2012-11-04 11:35:00
5:55 AM,35.6,30.2,81,30.20,10.0,Calm,Calm,-,N/A,,Clear,0,2012-11-04 11:55:00
6:15 AM,33.8,30.2,87,30.20,10.0,Calm,Calm,-,N/A,,Clear,0,2012-11-04 12:15:00
6:35 AM,33.8,30.2,87,30.20,10.0,WNW,3.5,-,N/A,,Clear,300,2012-11-04 12:35:00
6:55 AM,35.6,30.2,81,30.20,10.0,West,3.5,-,N/A,,Clear,280,2012-11-04 12:55:00
7:15 AM,33.8,30.2,87,30.20,10.0,NW,3.5,-,N/A,,Clear,310,2012-11-04 13:15:00
7:35 AM,33.8,30.2,87,30.20,10.0,WNW,4.6,-,N/A,,Clear,300,2012-11-04 13:35:00
7:55 AM,37.4,32.0,81,30.20,10.0,Calm,Calm,-,N/A,,Clear,0,2012-11-04 13:55:00
8:15 AM,41.0,32.0,70,30.20,10.0,Calm,Calm,-,N/A,,Clear,0,2012-11-04 14:15:00
8:35 AM,44.6,33.8,66,30.20,10.0,Calm,Calm,-,N/A,,Clear,0,2012-11-04 14:35:00
8:55 AM,50.0,35.6,58,30.20,10.0,Calm,Calm,-,N/A,,Clear,0,2012-11-04 14:55:00
9:15 AM,51.8,35.6,54,30.20,10.0,WSW,3.5,-,N/A,,Clear,250,2012-11-04 15:15:00
9:35 AM,53.6,35.6,51,30.20,10.0,WSW,3.5,-,N/A,,Clear,250,2012-11-04 15:35:00
9:55 AM,55.4,35.6,47,30.21,10.0,WSW,5.8,-,N/A,,Clear,240,2012-11-04 15:55:00
10:15 AM,57.2,35.6,44,30.21,10.0,SW,5.8,-,N/A,,Clear,220,2012-11-04 16:15:00
10:35 AM,59.0,37.4,45,30.21,10.0,SSW,5.8,-,N/A,,Clear,210,2012-11-04 16:35:00
10:55 AM,60.8,37.4,42,30.21,10.0,SSW,4.6,-,N/A,,Clear,210,2012-11-04 16:55:00
11:15 AM,60.8,37.4,42,30.20,10.0,SW,6.9,-,N/A,,Clear,220,2012-11-04 17:15:00
11:35 AM,62.6,37.4,39,30.20,10.0,West,8.1,-,N/A,,Clear,260,2012-11-04 17:35:00
11:55 AM,62.6,37.4,39,30.18,10.0,WSW,6.9,-,N/A,,Clear,240,2012-11-04 17:55:00
12:15 PM,64.4,39.2,40,30.18,10.0,WSW,10.4,-,N/A,,Clear,240,2012-11-04 18:15:00
12:35 PM,68.0,41.0,37,30.16,10.0,West,5.8,-,N/A,,Clear,260,2012-11-04 18:35:00
12:55 PM,68.0,41.0,37,30.15,10.0,SW,9.2,-,N/A,,Clear,230,2012-11-04 18:55:00
1:15 PM,68.0,41.0,37,30.13,10.0,SW,8.1,-,N/A,,Clear,230,2012-11-04 19:15:00
1:35 PM,69.8,41.0,35,30.13,10.0,SSW,6.9,-,N/A,,Clear,210,2012-11-04 19:35:00
1:55 PM,69.8,39.2,33,30.12,10.0,WSW,10.4,-,N/A,,Clear,240,2012-11-04 19:55:00
2:15 PM,69.8,37.4,31,30.11,10.0,SW,6.9,-,N/A,,Clear,230,2012-11-04 20:15:00
2:35 PM,69.8,39.2,33,30.11,10.0,SW,6.9,-,N/A,,Clear,220,2012-11-04 20:35:00
2:55 PM,71.6,39.2,31,30.09,10.0,SSW,11.5,-,N/A,,Clear,210,2012-11-04 20:55:00
3:15 PM,71.6,39.2,31,30.09,10.0,SSW,10.4,-,N/A,,Clear,210,2012-11-04 21:15:00
3:35 PM,71.6,39.2,31,30.08,10.0,SW,6.9,11.5,N/A,,Clear,220,2012-11-04 21:35:00
3:55 PM,71.6,39.2,31,30.07,10.0,SSW,8.1,16.1,N/A,,Clear,200,2012-11-04 21:55:00
4:15 PM,71.6,39.2,31,30.07,10.0,SSW,8.1,-,N/A,,Clear,200,2012-11-04 22:15:00
4:35 PM,69.8,39.2,33,30.06,10.0,SSW,9.2,-,N/A,,Clear,210,2012-11-04 22:35:00
4:55 PM,69.8,39.2,33,30.06,10.0,SSW,8.1,-,N/A,,Clear,200,2012-11-04 22:55:00
5:15 PM,69.8,39.2,33,30.06,10.0,SSW,6.9,-,N/A,,Clear,200,2012-11-04 23:15:00
5:35 PM,69.8,41.0,35,30.06,7.0,South,5.8,-,N/A,,Clear,190,2012-11-04 23:35:00
5:55 PM,64.4,37.4,37,30.06,10.0,South,5.8,-,N/A,,Clear,190,2012-11-04 23:55:00
6:15 PM,60.8,37.4,42,30.07,10.0,South,5.8,-,N/A,,Clear,190,2012-11-05 00:15:00
6:35 PM,59.0,39.2,48,30.07,10.0,South,6.9,-,N/A,,Clear,190,2012-11-05 00:35:00
7:15 PM,55.4,39.2,54,30.08,10.0,SSE,5.8,-,N/A,,Clear,160,2012-11-05 01:15:00
7:35 PM,53.6,37.4,54,30.08,10.0,SSE,5.8,-,N/A,,Clear,160,2012-11-05 01:35:00
7:55 PM,53.6,39.2,58,30.09,10.0,SSE,3.5,-,N/A,,Clear,160,2012-11-05 01:55:00
8:15 PM,53.6,39.2,58,30.09,10.0,Calm,Calm,-,N/A,,Clear,0,2012-11-05 02:15:00
8:35 PM,53.6,37.4,54,30.10,10.0,Calm,Calm,-,N/A,,Clear,0,2012-11-05 02:35:00
8:55 PM,53.6,41.0,62,30.10,10.0,SSE,4.6,-,N/A,,Clear,160,2012-11-05 02:55:00
9:15 PM,51.8,37.4,58,30.10,10.0,South,3.5,-,N/A,,Clear,180,2012-11-05 03:15:00
9:35 PM,50.0,37.4,62,30.10,10.0,SSW,4.6,-,N/A,,Clear,200,2012-11-05 03:35:00
9:55 PM,50.0,37.4,62,30.11,10.0,Calm,Calm,-,N/A,,Clear,0,2012-11-05 03:55:00
10:15 PM,46.4,35.6,66,30.11,10.0,Calm,Calm,-,N/A,,Clear,0,2012-11-05 04:15:00
10:35 PM,46.4,37.4,71,30.11,10.0,WSW,3.5,-,N/A,,Clear,250,2012-11-05 04:35:00
10:55 PM,46.4,35.6,66,30.11,10.0,SSW,4.6,-,N/A,,Clear,210,2012-11-05 04:55:00